Time;durP1;ratioP1;P1;durP2;ratioP2;P2;SDS_P1;SDS_P2;PMS_P1;PMS_P2;Temp;Humidity;BMP_temperature;BMP_pressure;BME280_temperature;BME280_humidity;BME280_pressure;Samples;Min_cycle;Max_cycle;Signal;HPM_P1;HPM_P2
2023/09/18 00:03:02;;;;;;;13.27;9.57;;;;;;;;;;6260144;28;20045;-67
2023/09/18 00:06:05;;;;;;;15.15;9.30;;;;;;;;;;6260722;28;20442;-68
2023/09/18 00:09:11;;;;;;;15.13;8.98;;;;;;;;;;6260893;28;20041;-67
2023/09/18 00:12:13;;;;;;;13.90;8.30;;;;;;;;;;6261290;28;20107;-68
2023/09/18 00:15:15;;;;;;;10.55;7.35;;;;;;;;;;6260189;28;20037;-68
2023/09/18 00:18:17;;;;;;;10.93;7.15;;;;;;;;;;6257877;28;20139;-68
2023/09/18 00:21:19;;;;;;;10.10;4.95;;;;;;;;;;6260727;28;20155;-68
2023/09/18 00:24:21;;;;;;;7.85;5.35;;;;;;;;;;6260486;28;20053;-68
2023/09/18 00:27:24;;;;;;;8.35;5.05;;;;;;;;;;6260538;28;20041;-68
2023/09/18 00:30:26;;;;;;;7.38;4.43;;;;;;;;;;6260456;28;20505;-68
2023/09/18 00:33:29;;;;;;;7.50;4.30;;;;;;;;;;6256302;28;20059;-68
2023/09/18 00:36:31;;;;;;;10.30;4.60;;;;;;;;;;6260885;28;20128;-68
2023/09/18 00:39:34;;;;;;;8.77;5.38;;;;;;;;;;6258796;28;20053;-68
2023/09/18 00:42:36;;;;;;;8.85;5.35;;;;;;;;;;6260526;28;20148;-67
2023/09/18 00:45:42;;;;;;;10.45;6.07;;;;;;;;;;6260074;28;20060;-68
2023/09/18 00:48:44;;;;;;;8.52;6.50;;;;;;;;;;6257102;28;20056;-68
2023/09/18 00:51:47;;;;;;;11.65;8.77;;;;;;;;;;6259417;28;20052;-67
2023/09/18 00:54:50;;;;;;;10.32;7.75;;;;;;;;;;6259449;28;20055;-67
2023/09/18 00:57:52;;;;;;;11.45;7.78;;;;;;;;;;6264620;28;20051;-68
2023/09/18 01:00:54;;;;;;;14.25;8.43;;;;;;;;;;6264579;28;20060;-68
2023/09/18 01:03:56;;;;;;;11.98;7.55;;;;;;;;;;6262440;28;20045;-67
2023/09/18 01:07:03;;;;;;;11.35;6.80;;;;;;;;;;6238115;28;20057;-68
2023/09/18 01:10:05;;;;;;;10.88;5.82;;;;;;;;;;6261839;28;20055;-67
2023/09/18 01:13:22;;;;;;;9.45;7.47;;;;;;;;;;6262761;28;20170;-69
2023/09/18 01:16:27;;;;;;;8.77;6.40;;;;;;;;;;6263127;28;20233;-68
2023/09/18 01:19:46;;;;;;;8.95;5.53;;;;;;;;;;6291087;28;20117;-68
2023/09/18 01:22:49;;;;;;;9.07;6.05;;;;;;;;;;6263994;28;20060;-68
2023/09/18 01:25:51;;;;;;;13.02;4.90;;;;;;;;;;6262921;28;20098;-67
2023/09/18 01:28:54;;;;;;;6.63;4.95;;;;;;;;;;6263433;28;20053;-68
2023/09/18 01:31:57;;;;;;;6.35;4.15;;;;;;;;;;6263481;28;20179;-68
2023/09/18 01:35:01;;;;;;;8.30;5.07;;;;;;;;;;6262083;28;21440;-67
2023/09/18 01:38:03;;;;;;;7.70;4.35;;;;;;;;;;6263138;28;20049;-69
2023/09/18 01:41:05;;;;;;;9.73;6.07;;;;;;;;;;6262350;28;20060;-68
2023/09/18 01:44:07;;;;;;;10.80;4.47;;;;;;;;;;6262516;28;20046;-68
2023/09/18 01:47:13;;;;;;;8.63;5.00;;;;;;;;;;6263357;28;20048;-68
2023/09/18 01:50:15;;;;;;;9.52;4.70;;;;;;;;;;6264201;28;20981;-68
2023/09/18 01:53:17;;;;;;;6.95;4.05;;;;;;;;;;6263813;28;20281;-69
2023/09/18 01:56:19;;;;;;;7.60;5.20;;;;;;;;;;6284419;28;20044;-68
2023/09/18 01:59:22;;;;;;;8.50;3.97;;;;;;;;;;6262075;28;20182;-68
2023/09/18 02:02:25;;;;;;;5.47;3.92;;;;;;;;;;6262448;28;20804;-68
2023/09/18 02:05:42;;;;;;;8.75;4.75;;;;;;;;;;6261013;28;20045;-68
2023/09/18 02:08:45;;;;;;;6.38;3.67;;;;;;;;;;6262080;28;20096;-68
2023/09/18 02:11:48;;;;;;;7.03;5.80;;;;;;;;;;6263214;28;20041;-68
2023/09/18 02:14:51;;;;;;;6.40;3.58;;;;;;;;;;6262221;28;20052;-68
2023/09/18 02:17:53;;;;;;;6.45;3.83;;;;;;;;;;6264085;28;20053;-68
2023/09/18 02:20:56;;;;;;;13.50;4.63;;;;;;;;;;6262532;28;20053;-68
2023/09/18 02:23:58;;;;;;;8.00;4.70;;;;;;;;;;6261540;28;20048;-67
2023/09/18 02:27:00;;;;;;;7.97;4.68;;;;;;;;;;6262059;28;20033;-67
2023/09/18 02:30:02;;;;;;;8.05;4.93;;;;;;;;;;6260497;28;20202;-67
2023/09/18 02:33:05;;;;;;;7.78;5.03;;;;;;;;;;6262561;28;20887;-66
2023/09/18 02:36:09;;;;;;;6.40;5.22;;;;;;;;;;6262058;28;20143;-67
2023/09/18 02:39:11;;;;;;;8.98;4.63;;;;;;;;;;6261232;28;20048;-67
2023/09/18 02:42:13;;;;;;;11.95;5.40;;;;;;;;;;6261465;28;20052;-66
2023/09/18 02:45:15;;;;;;;11.75;5.03;;;;;;;;;;6261860;28;20049;-66
2023/09/18 02:48:17;;;;;;;8.23;4.57;;;;;;;;;;6266889;28;20051;-66
2023/09/18 02:51:19;;;;;;;9.82;4.88;;;;;;;;;;6274978;28;20041;-67
2023/09/18 02:54:22;;;;;;;8.63;5.55;;;;;;;;;;6262436;28;20048;-67
2023/09/18 02:57:24;;;;;;;7.28;4.75;;;;;;;;;;6261211;28;20044;-67
2023/09/18 03:00:26;;;;;;;7.72;6.03;;;;;;;;;;6283980;28;20053;-67
2023/09/18 03:03:44;;;;;;;9.10;5.20;;;;;;;;;;6255220;28;20757;-67
2023/09/18 03:06:47;;;;;;;8.32;4.50;;;;;;;;;;6260155;28;20041;-67
2023/09/18 03:09:49;;;;;;;8.57;5.75;;;;;;;;;;6261611;28;20056;-67
2023/09/18 03:12:51;;;;;;;11.20;5.85;;;;;;;;;;6260854;28;20523;-68
2023/09/18 03:15:53;;;;;;;9.77;4.53;;;;;;;;;;6260259;28;20052;-67
2023/09/18 03:18:55;;;;;;;6.82;4.40;;;;;;;;;;6260623;28;20045;-67
2023/09/18 03:21:57;;;;;;;6.45;5.50;;;;;;;;;;6260315;28;20149;-67
2023/09/18 03:24:59;;;;;;;8.35;4.45;;;;;;;;;;6260606;28;20040;-68
2023/09/18 03:28:01;;;;;;;7.25;3.58;;;;;;;;;;6261985;28;20049;-67
2023/09/18 03:31:06;;;;;;;10.07;5.28;;;;;;;;;;6281514;28;20056;-67
2023/09/18 03:34:09;;;;;;;11.80;4.97;;;;;;;;;;6259993;28;20036;-67
2023/09/18 03:37:11;;;;;;;7.47;4.95;;;;;;;;;;6259329;28;20037;-67
2023/09/18 03:40:16;;;;;;;8.23;5.53;;;;;;;;;;6262169;28;20045;-67
2023/09/18 03:43:18;;;;;;;8.45;4.63;;;;;;;;;;6260112;28;20803;-67
2023/09/18 03:46:20;;;;;;;6.38;4.63;;;;;;;;;;6236744;28;20551;-66
2023/09/18 03:49:24;;;;;;;9.05;5.25;;;;;;;;;;6294166;28;20037;-67
2023/09/18 03:52:27;;;;;;;8.13;5.30;;;;;;;;;;6260740;28;20056;-67
2023/09/18 03:55:29;;;;;;;7.72;5.65;;;;;;;;;;6260801;28;20569;-66
2023/09/18 03:58:32;;;;;;;12.15;5.90;;;;;;;;;;6260355;28;20048;-67
2023/09/18 04:01:38;;;;;;;11.95;5.78;;;;;;;;;;6260371;28;20056;-67
2023/09/18 04:04:40;;;;;;;10.90;5.93;;;;;;;;;;6260001;28;20045;-67
2023/09/18 04:07:45;;;;;;;16.17;6.85;;;;;;;;;;6260397;28;20052;-66
2023/09/18 04:10:48;;;;;;;13.70;8.02;;;;;;;;;;6244608;28;20136;-68
2023/09/18 04:13:50;;;;;;;12.32;7.57;;;;;;;;;;6258197;28;20136;-66
2023/09/18 04:16:52;;;;;;;16.80;9.55;;;;;;;;;;6251500;28;20037;-67
2023/09/18 04:19:55;;;;;;;13.68;8.13;;;;;;;;;;6260681;28;20049;-66
2023/09/18 04:23:20;;;;;;;15.27;8.60;;;;;;;;;;6261149;28;20514;-67
2023/09/18 04:26:22;;;;;;;15.98;10.52;;;;;;;;;;6262440;28;20056;-67
2023/09/18 04:29:25;;;;;;;13.93;9.23;;;;;;;;;;6265805;28;20119;-67
2023/09/18 04:32:29;;;;;;;15.30;8.80;;;;;;;;;;6265476;28;20060;-67
2023/09/18 04:35:33;;;;;;;16.23;10.25;;;;;;;;;;6264673;28;20052;-67
2023/09/18 04:38:35;;;;;;;16.05;9.40;;;;;;;;;;6269914;28;20060;-66
2023/09/18 04:41:37;;;;;;;13.48;8.82;;;;;;;;;;6267579;28;20058;-67
2023/09/18 04:44:41;;;;;;;16.15;9.75;;;;;;;;;;6264440;28;20056;-67
2023/09/18 04:47:44;;;;;;;14.25;8.57;;;;;;;;;;6244569;28;20052;-66
2023/09/18 04:50:48;;;;;;;13.07;9.40;;;;;;;;;;6264017;28;20085;-67
2023/09/18 04:53:51;;;;;;;16.25;8.05;;;;;;;;;;6264539;28;20059;-67
2023/09/18 04:56:54;;;;;;;13.73;8.10;;;;;;;;;;6264102;28;20131;-67
2023/09/18 04:59:56;;;;;;;13.27;7.18;;;;;;;;;;6263698;28;20145;-66
2023/09/18 05:03:16;;;;;;;11.50;5.80;;;;;;;;;;6256629;28;20042;-67
2023/09/18 05:06:19;;;;;;;11.68;6.90;;;;;;;;;;6265612;28;20045;-67
2023/09/18 05:09:21;;;;;;;10.75;5.85;;;;;;;;;;6264511;28;20048;-67
2023/09/18 05:12:23;;;;;;;10.93;6.88;;;;;;;;;;6262539;28;20045;-67
2023/09/18 05:15:26;;;;;;;11.25;6.43;;;;;;;;;;6268794;28;20733;-68
2023/09/18 05:18:29;;;;;;;12.88;5.88;;;;;;;;;;6259100;28;20740;-68
2023/09/18 05:21:33;;;;;;;9.13;4.25;;;;;;;;;;6260121;28;20060;-67
2023/09/18 05:24:35;;;;;;;11.45;6.07;;;;;;;;;;6265041;28;20044;-65
2023/09/18 05:27:44;;;;;;;10.52;5.30;;;;;;;;;;6256330;28;20041;-66
2023/09/18 05:30:46;;;;;;;7.13;4.68;;;;;;;;;;6255829;28;20127;-67
2023/09/18 05:33:48;;;;;;;9.02;4.72;;;;;;;;;;6261306;28;20085;-66
2023/09/18 05:36:50;;;;;;;9.27;3.60;;;;;;;;;;6256666;28;20037;-65
2023/09/18 05:39:52;;;;;;;6.90;3.70;;;;;;;;;;6261731;28;20057;-67
2023/09/18 05:42:55;;;;;;;8.45;4.30;;;;;;;;;;6251972;28;20061;-66
2023/09/18 05:45:57;;;;;;;6.40;4.50;;;;;;;;;;6257212;28;20041;-66
2023/09/18 05:49:00;;;;;;;8.25;4.18;;;;;;;;;;6252847;28;20044;-66
2023/09/18 05:52:02;;;;;;;8.98;5.85;;;;;;;;;;6254761;28;20064;-66
2023/09/18 05:55:06;;;;;;;12.88;4.28;;;;;;;;;;6257369;28;20140;-67
2023/09/18 05:58:09;;;;;;;9.82;5.28;;;;;;;;;;6257974;28;20049;-66
2023/09/18 06:01:13;;;;;;;8.43;5.00;;;;;;;;;;6255593;28;20053;-66
2023/09/18 06:04:16;;;;;;;11.55;5.88;;;;;;;;;;6260727;28;20624;-66
2023/09/18 06:07:19;;;;;;;6.80;5.30;;;;;;;;;;6255454;28;20744;-67
2023/09/18 06:10:21;;;;;;;8.55;5.10;;;;;;;;;;6253520;28;20049;-66
2023/09/18 06:13:27;;;;;;;9.80;6.18;;;;;;;;;;6255271;28;20082;-65
2023/09/18 06:16:31;;;;;;;7.82;4.97;;;;;;;;;;6263383;28;20045;-67
2023/09/18 06:19:33;;;;;;;8.98;6.13;;;;;;;;;;6265832;28;20060;-67
2023/09/18 06:22:40;;;;;;;9.68;4.85;;;;;;;;;;6265699;28;20049;-68
2023/09/18 06:25:42;;;;;;;9.27;5.70;;;;;;;;;;6262709;28;20443;-67
2023/09/18 06:28:44;;;;;;;9.15;5.80;;;;;;;;;;6252767;28;20106;-64
2023/09/18 06:31:46;;;;;;;7.75;5.82;;;;;;;;;;6262685;28;20041;-67
2023/09/18 06:34:48;;;;;;;14.13;9.13;;;;;;;;;;6260378;28;20043;-65
2023/09/18 06:37:50;;;;;;;12.50;8.90;;;;;;;;;;6259484;28;20037;-67
2023/09/18 06:40:55;;;;;;;13.07;8.55;;;;;;;;;;6259485;28;20095;-67
2023/09/18 06:43:57;;;;;;;13.57;9.52;;;;;;;;;;6261499;28;20443;-66
2023/09/18 06:46:59;;;;;;;15.60;9.43;;;;;;;;;;6260072;28;20045;-67
2023/09/18 06:50:04;;;;;;;14.93;9.27;;;;;;;;;;6262246;28;20041;-68
2023/09/18 06:53:06;;;;;;;10.82;7.90;;;;;;;;;;6261434;28;20045;-67
2023/09/18 06:56:09;;;;;;;11.90;8.73;;;;;;;;;;6261165;28;20056;-67
2023/09/18 06:59:11;;;;;;;14.10;8.75;;;;;;;;;;6260668;28;20102;-67
2023/09/18 07:02:14;;;;;;;12.65;8.48;;;;;;;;;;6261875;28;20052;-67
2023/09/18 07:05:17;;;;;;;12.15;7.82;;;;;;;;;;6259576;28;20043;-67
2023/09/18 07:08:22;;;;;;;13.35;8.30;;;;;;;;;;6260951;28;20040;-68
2023/09/18 07:11:25;;;;;;;13.50;9.15;;;;;;;;;;6262394;28;20049;-67
2023/09/18 07:14:27;;;;;;;12.68;8.52;;;;;;;;;;6262514;28;20850;-67
2023/09/18 07:17:29;;;;;;;10.75;5.93;;;;;;;;;;6252993;28;20041;-67
2023/09/18 07:20:32;;;;;;;9.50;7.00;;;;;;;;;;6261023;28;20037;-67
2023/09/18 07:23:37;;;;;;;12.30;6.97;;;;;;;;;;6262512;28;20439;-68
2023/09/18 07:26:39;;;;;;;11.95;7.03;;;;;;;;;;6261884;28;20045;-68
2023/09/18 07:29:41;;;;;;;10.98;6.15;;;;;;;;;;6261954;28;20570;-67
2023/09/18 07:32:43;;;;;;;8.90;5.90;;;;;;;;;;6261146;28;20180;-67
2023/09/18 07:35:51;;;;;;;12.07;5.60;;;;;;;;;;6262121;28;20041;-68
2023/09/18 07:38:56;;;;;;;10.10;7.15;;;;;;;;;;6262125;28;20049;-67
2023/09/18 07:41:58;;;;;;;9.43;6.03;;;;;;;;;;6262288;28;20051;-67
2023/09/18 07:45:00;;;;;;;9.27;5.28;;;;;;;;;;6261655;28;20121;-68
2023/09/18 07:48:03;;;;;;;7.97;5.47;;;;;;;;;;6261741;28;20049;-67
2023/09/18 07:51:05;;;;;;;7.68;4.72;;;;;;;;;;6258490;28;20060;-68
2023/09/18 07:54:07;;;;;;;10.02;5.25;;;;;;;;;;6261532;28;20083;-68
2023/09/18 07:57:10;;;;;;;10.07;5.72;;;;;;;;;;6261329;28;20053;-68
2023/09/18 08:00:13;;;;;;;9.95;5.07;;;;;;;;;;6261378;28;20071;-68
2023/09/18 08:03:15;;;;;;;8.27;4.75;;;;;;;;;;6260738;28;20045;-68
2023/09/18 08:06:19;;;;;;;9.15;5.22;;;;;;;;;;6261184;28;20044;-67
2023/09/18 08:09:21;;;;;;;9.48;5.78;;;;;;;;;;6261577;28;20059;-68
2023/09/18 08:12:23;;;;;;;10.60;5.90;;;;;;;;;;6261342;28;20045;-67
2023/09/18 08:15:27;;;;;;;7.57;5.47;;;;;;;;;;6253496;28;20045;-68
2023/09/18 08:18:29;;;;;;;10.20;5.90;;;;;;;;;;6260309;28;20492;-67
2023/09/18 08:21:31;;;;;;;7.78;4.65;;;;;;;;;;6259958;28;20051;-67
2023/09/18 08:24:34;;;;;;;8.43;4.50;;;;;;;;;;6260506;28;20048;-68
2023/09/18 08:27:41;;;;;;;10.13;5.43;;;;;;;;;;6259914;28;20219;-68
2023/09/18 08:30:47;;;;;;;9.73;5.63;;;;;;;;;;6258447;28;20055;-68
2023/09/18 08:33:49;;;;;;;10.60;5.95;;;;;;;;;;6259760;28;20051;-68
2023/09/18 08:36:51;;;;;;;8.98;5.32;;;;;;;;;;6255644;28;20159;-68
2023/09/18 08:39:54;;;;;;;9.98;6.03;;;;;;;;;;6249858;28;20083;-68
2023/09/18 08:42:59;;;;;;;9.00;5.93;;;;;;;;;;6270038;28;20152;-67
2023/09/18 08:46:03;;;;;;;9.57;6.55;;;;;;;;;;6260104;28;20166;-68
2023/09/18 08:49:07;;;;;;;8.82;6.20;;;;;;;;;;6258936;28;20123;-68
2023/09/18 08:52:10;;;;;;;10.75;5.30;;;;;;;;;;6260129;28;20053;-68
2023/09/18 08:55:13;;;;;;;9.25;6.57;;;;;;;;;;6259538;28;20484;-68
2023/09/18 08:58:19;;;;;;;10.73;6.65;;;;;;;;;;6248062;28;20084;-68
2023/09/18 09:01:22;;;;;;;10.35;6.70;;;;;;;;;;6258481;28;20056;-68
2023/09/18 09:04:24;;;;;;;14.25;6.35;;;;;;;;;;6255955;28;20052;-68
2023/09/18 09:07:28;;;;;;;8.27;5.72;;;;;;;;;;6260577;28;20041;-69
2023/09/18 09:10:30;;;;;;;8.23;5.57;;;;;;;;;;6259954;28;20049;-69
2023/09/18 09:13:33;;;;;;;10.55;6.00;;;;;;;;;;6259252;28;20057;-68
2023/09/18 09:16:47;;;;;;;10.65;6.00;;;;;;;;;;6263984;28;20768;-68
2023/09/18 09:19:49;;;;;;;8.40;5.97;;;;;;;;;;6264753;28;20055;-68
2023/09/18 09:22:53;;;;;;;9.68;6.25;;;;;;;;;;6264870;28;20541;-68
2023/09/18 09:26:16;;;;;;;9.93;6.88;;;;;;;;;;6262727;28;20434;-69
2023/09/18 09:29:20;;;;;;;9.30;5.38;;;;;;;;;;6263402;28;20041;-68
2023/09/18 09:32:23;;;;;;;8.35;4.55;;;;;;;;;;6260880;28;20056;-68
2023/09/18 09:35:32;;;;;;;8.65;4.38;;;;;;;;;;6263746;28;20040;-68
2023/09/18 09:38:35;;;;;;;7.40;4.45;;;;;;;;;;6263714;28;20053;-68
2023/09/18 09:41:37;;;;;;;7.47;4.55;;;;;;;;;;6263913;28;20048;-68
2023/09/18 09:44:39;;;;;;;6.63;4.22;;;;;;;;;;6262290;28;20045;-69
2023/09/18 09:47:42;;;;;;;8.13;5.03;;;;;;;;;;6264517;28;20041;-68
2023/09/18 09:50:48;;;;;;;6.75;4.47;;;;;;;;;;6262456;28;20056;-69
2023/09/18 09:53:51;;;;;;;6.30;3.63;;;;;;;;;;6262923;28;20041;-68
2023/09/18 09:56:53;;;;;;;13.50;8.68;;;;;;;;;;6263536;28;20587;-68
2023/09/18 10:00:21;;;;;;;8.27;4.72;;;;;;;;;;6263108;28;20146;-69
2023/09/18 10:03:23;;;;;;;6.22;3.67;;;;;;;;;;6263215;28;20105;-68
2023/09/18 10:06:30;;;;;;;6.43;4.43;;;;;;;;;;6262744;28;20052;-68
2023/09/18 10:09:35;;;;;;;6.38;4.38;;;;;;;;;;6257621;28;20480;-68
2023/09/18 10:12:38;;;;;;;6.38;3.95;;;;;;;;;;6252198;28;20053;-68
2023/09/18 10:15:42;;;;;;;7.97;3.90;;;;;;;;;;6261110;28;20103;-68
2023/09/18 10:19:08;;;;;;;8.20;4.25;;;;;;;;;;6261403;28;20049;-68
2023/09/18 10:22:27;;;;;;;10.07;3.83;;;;;;;;;;6258569;28;20052;-69
2023/09/18 10:25:31;;;;;;;4.95;3.17;;;;;;;;;;6260799;28;20048;-68
2023/09/18 10:28:34;;;;;;;6.03;4.00;;;;;;;;;;6261657;28;20119;-68
2023/09/18 10:31:37;;;;;;;7.40;4.38;;;;;;;;;;6262611;28;20057;-68
2023/09/18 10:34:40;;;;;;;8.82;3.92;;;;;;;;;;6262535;28;20106;-69
2023/09/18 10:37:45;;;;;;;6.95;4.18;;;;;;;;;;6260225;28;20798;-68
2023/09/18 10:40:47;;;;;;;7.43;3.75;;;;;;;;;;6262804;28;20037;-69
2023/09/18 10:43:53;;;;;;;6.72;3.35;;;;;;;;;;6255447;28;20053;-69
2023/09/18 10:46:55;;;;;;;6.03;3.42;;;;;;;;;;6268858;28;20132;-68
2023/09/18 10:49:57;;;;;;;7.03;3.60;;;;;;;;;;6274553;28;20040;-68
2023/09/18 10:52:59;;;;;;;7.50;3.60;;;;;;;;;;6260418;28;20053;-67
2023/09/18 10:56:04;;;;;;;7.50;3.70;;;;;;;;;;6260961;28;20586;-68
2023/09/18 10:59:07;;;;;;;9.02;3.78;;;;;;;;;;6260511;28;20052;-68
2023/09/18 11:02:10;;;;;;;6.03;3.55;;;;;;;;;;6251261;28;20052;-69
2023/09/18 11:05:12;;;;;;;6.60;4.13;;;;;;;;;;6257282;28;20122;-68
2023/09/18 11:08:24;;;;;;;12.40;3.63;;;;;;;;;;6290194;28;20039;-68
2023/09/18 11:11:29;;;;;;;6.03;3.97;;;;;;;;;;6253810;28;20056;-68
2023/09/18 11:14:44;;;;;;;8.07;3.50;;;;;;;;;;6249332;28;20053;-68
2023/09/18 11:17:58;;;;;;;5.57;3.60;;;;;;;;;;6260806;28;20390;-68
2023/09/18 11:21:09;;;;;;;7.20;3.88;;;;;;;;;;6288807;28;20048;-68
2023/09/18 11:24:22;;;;;;;9.45;3.47;;;;;;;;;;6257271;28;20061;-68
2023/09/18 11:27:25;;;;;;;6.22;3.90;;;;;;;;;;6258758;28;20187;-68
2023/09/18 11:30:28;;;;;;;5.68;2.88;;;;;;;;;;6248475;28;20064;-68
2023/09/18 11:33:42;;;;;;;5.25;3.15;;;;;;;;;;6245461;28;20049;-68
2023/09/18 11:36:45;;;;;;;6.93;3.45;;;;;;;;;;6253708;28;20715;-68
2023/09/18 11:39:47;;;;;;;8.07;3.97;;;;;;;;;;6253663;28;20359;-68
2023/09/18 11:43:31;;;;;;;5.85;3.63;;;;;;;;;;6248392;28;20050;-68
2023/09/18 11:46:35;;;;;;;6.60;3.33;;;;;;;;;;6183604;28;20647;-68
2023/09/18 11:49:38;;;;;;;8.15;3.53;;;;;;;;;;6173103;28;20050;-68
2023/09/18 11:52:40;;;;;;;6.82;3.92;;;;;;;;;;6251484;28;20098;-68
2023/09/18 11:55:43;;;;;;;6.30;3.20;;;;;;;;;;6251733;28;20041;-68
2023/09/18 11:58:49;;;;;;;5.65;3.38;;;;;;;;;;6255899;28;20045;-68
2023/09/18 12:02:01;;;;;;;6.97;4.07;;;;;;;;;;6253644;28;20045;-68
2023/09/18 12:05:26;;;;;;;7.30;4.13;;;;;;;;;;6251852;28;20136;-68
2023/09/18 12:08:32;;;;;;;5.57;3.58;;;;;;;;;;6255270;28;20040;-68
2023/09/18 12:11:35;;;;;;;8.27;3.33;;;;;;;;;;6242507;28;20049;-68
2023/09/18 12:14:41;;;;;;;5.60;3.35;;;;;;;;;;6247465;28;20596;-67
2023/09/18 12:17:45;;;;;;;7.68;5.00;;;;;;;;;;6246970;28;20141;-67
2023/09/18 12:20:49;;;;;;;6.53;2.97;;;;;;;;;;6260736;28;20080;-67
2023/09/18 12:23:51;;;;;;;5.72;3.85;;;;;;;;;;6248043;28;20084;-67
2023/09/18 12:26:54;;;;;;;4.72;2.90;;;;;;;;;;6255336;28;20049;-68
2023/09/18 12:29:59;;;;;;;7.05;4.35;;;;;;;;;;6248084;28;20647;-67
2023/09/18 12:33:03;;;;;;;6.47;3.03;;;;;;;;;;6252071;28;20048;-68
2023/09/18 12:36:07;;;;;;;7.72;3.78;;;;;;;;;;6250934;28;20041;-68
2023/09/18 12:39:10;;;;;;;;;;;;;;;;;;6251651;28;20045;-66
2023/09/18 12:42:12;;;;;;;6.50;3.58;;;;;;;;;;6249572;28;19931;-67
2023/09/18 12:45:14;;;;;;;5.97;3.00;;;;;;;;;;6249989;28;20044;-67
2023/09/18 12:48:16;;;;;;;10.38;3.92;;;;;;;;;;6253855;28;20087;-67
2023/09/18 12:51:22;;;;;;;5.25;2.88;;;;;;;;;;6252431;28;20440;-67
2023/09/18 12:54:53;;;;;;;6.60;3.25;;;;;;;;;;6260634;28;20048;-66
2023/09/18 12:57:55;;;;;;;142.73;13.07;;;;;;;;;;6258094;28;20045;-68
2023/09/18 13:01:07;;;;;;;6.05;3.35;;;;;;;;;;6258716;28;20617;-67
2023/09/18 13:04:12;;;;;;;6.25;3.47;;;;;;;;;;6260935;28;20074;-67
2023/09/18 13:07:14;;;;;;;6.75;3.42;;;;;;;;;;6261449;28;20037;-66
2023/09/18 13:10:16;;;;;;;6.10;3.45;;;;;;;;;;6257063;28;20048;-67
2023/09/18 13:13:23;;;;;;;5.10;3.47;;;;;;;;;;6258314;28;20045;-67
2023/09/18 13:16:25;;;;;;;6.15;3.63;;;;;;;;;;6253769;28;20500;-67
2023/09/18 13:19:27;;;;;;;7.68;3.40;;;;;;;;;;6261364;28;20052;-67
2023/09/18 13:22:30;;;;;;;7.03;3.80;;;;;;;;;;6256222;28;20384;-68
2023/09/18 13:25:42;;;;;;;6.43;3.40;;;;;;;;;;6258554;28;20048;-68
2023/09/18 13:28:44;;;;;;;7.78;3.28;;;;;;;;;;6262472;28;20060;-69
2023/09/18 13:31:46;;;;;;;6.93;3.88;;;;;;;;;;6254855;28;20055;-68
2023/09/18 13:34:48;;;;;;;6.78;3.83;;;;;;;;;;6252287;28;20056;-68
2023/09/18 13:37:50;;;;;;;6.35;3.67;;;;;;;;;;6253852;28;20045;-68
2023/09/18 13:40:54;;;;;;;6.90;4.22;;;;;;;;;;6260836;28;20129;-68
2023/09/18 13:43:56;;;;;;;6.18;3.72;;;;;;;;;;6259574;28;20762;-68
2023/09/18 13:46:58;;;;;;;5.53;3.70;;;;;;;;;;6260107;28;20052;-68
2023/09/18 13:50:02;;;;;;;5.88;4.25;;;;;;;;;;6261499;28;20130;-68
2023/09/18 13:53:05;;;;;;;6.72;3.55;;;;;;;;;;6270052;28;20047;-67
2023/09/18 13:56:07;;;;;;;6.65;3.30;;;;;;;;;;6271465;28;20048;-68
2023/09/18 13:59:10;;;;;;;9.20;3.20;;;;;;;;;;6257324;28;20048;-67
2023/09/18 14:02:13;;;;;;;12.40;3.95;;;;;;;;;;6253669;28;20048;-67
2023/09/18 14:05:15;;;;;;;9.95;3.22;;;;;;;;;;6257310;28;20123;-67
2023/09/18 14:08:20;;;;;;;6.88;3.22;;;;;;;;;;6254755;28;20041;-68
2023/09/18 14:11:22;;;;;;;5.93;3.78;;;;;;;;;;6259026;28;20681;-68
2023/09/18 14:14:24;;;;;;;5.97;2.85;;;;;;;;;;6258048;28;20041;-68
2023/09/18 14:17:26;;;;;;;4.57;2.78;;;;;;;;;;6259347;28;20063;-68
2023/09/18 14:20:29;;;;;;;5.90;3.80;;;;;;;;;;6253418;28;20041;-67
2023/09/18 14:23:33;;;;;;;5.68;2.75;;;;;;;;;;6250667;28;20049;-68
2023/09/18 14:26:40;;;;;;;4.50;2.80;;;;;;;;;;6248322;28;20056;-68
2023/09/18 14:29:43;;;;;;;5.32;3.50;;;;;;;;;;6256323;28;20587;-68
2023/09/18 14:32:46;;;;;;;6.80;3.78;;;;;;;;;;6259738;28;20044;-68
2023/09/18 14:35:49;;;;;;;4.63;2.72;;;;;;;;;;6249950;28;20120;-68
2023/09/18 14:38:51;;;;;;;4.68;2.92;;;;;;;;;;6252287;28;20032;-68
2023/09/18 14:41:53;;;;;;;5.45;2.78;;;;;;;;;;6262079;28;20037;-67
2023/09/18 14:44:55;;;;;;;5.47;3.40;;;;;;;;;;6260801;28;20060;-68
2023/09/18 14:47:58;;;;;;;7.07;3.15;;;;;;;;;;6258418;28;20836;-68
2023/09/18 14:51:00;;;;;;;7.07;2.90;;;;;;;;;;6262409;28;20045;-68
2023/09/18 14:54:04;;;;;;;7.25;3.53;;;;;;;;;;6252520;28;20041;-67
2023/09/18 14:57:06;;;;;;;5.13;3.15;;;;;;;;;;6254571;28;20154;-68
2023/09/18 15:00:10;;;;;;;7.40;3.10;;;;;;;;;;6253459;28;20049;-68
2023/09/18 15:03:12;;;;;;;5.75;3.35;;;;;;;;;;6247418;28;20106;-68
2023/09/18 15:06:15;;;;;;;5.45;2.85;;;;;;;;;;6252407;28;20059;-68
2023/09/18 15:09:20;;;;;;;6.88;3.15;;;;;;;;;;6254717;28;20064;-69
2023/09/18 15:12:22;;;;;;;5.80;3.40;;;;;;;;;;6253247;28;20041;-68
2023/09/18 15:15:24;;;;;;;5.55;2.75;;;;;;;;;;6257106;28;20068;-69
2023/09/18 15:18:26;;;;;;;7.05;3.22;;;;;;;;;;6260548;28;20049;-68
2023/09/18 15:21:29;;;;;;;5.70;3.25;;;;;;;;;;6261023;28;20897;-69
2023/09/18 15:24:31;;;;;;;6.07;2.67;;;;;;;;;;6258838;28;20108;-68
2023/09/18 15:27:33;;;;;;;5.60;3.25;;;;;;;;;;6258150;28;20566;-68
2023/09/18 15:30:35;;;;;;;10.10;2.72;;;;;;;;;;6258815;28;20056;-68
2023/09/18 15:33:38;;;;;;;8.68;3.53;;;;;;;;;;6259199;28;20071;-68
2023/09/18 15:36:40;;;;;;;7.38;3.50;;;;;;;;;;6252530;28;20134;-68
2023/09/18 15:39:43;;;;;;;7.75;3.55;;;;;;;;;;6258546;28;20721;-68
2023/09/18 15:42:45;;;;;;;8.38;3.30;;;;;;;;;;6259612;28;20468;-68
2023/09/18 15:45:47;;;;;;;5.97;3.35;;;;;;;;;;6259394;28;20448;-68
2023/09/18 15:48:50;;;;;;;7.32;3.92;;;;;;;;;;6251215;28;20447;-68
2023/09/18 15:51:52;;;;;;;5.43;3.40;;;;;;;;;;6249121;28;20476;-68
2023/09/18 15:54:54;;;;;;;7.95;3.42;;;;;;;;;;6252814;28;20100;-68
2023/09/18 15:57:56;;;;;;;7.25;3.20;;;;;;;;;;6257259;28;20041;-68
2023/09/18 16:01:02;;;;;;;8.10;3.50;;;;;;;;;;6254628;28;20436;-68
2023/09/18 16:04:04;;;;;;;7.28;4.45;;;;;;;;;;6249767;28;20539;-68
2023/09/18 16:07:12;;;;;;;8.27;3.50;;;;;;;;;;6246007;28;20084;-68
2023/09/18 16:10:14;;;;;;;10.20;4.07;;;;;;;;;;6260494;28;20066;-68
2023/09/18 16:13:16;;;;;;;7.35;4.22;;;;;;;;;;6268229;28;20056;-68
2023/09/18 16:16:21;;;;;;;8.15;3.92;;;;;;;;;;6258366;28;20494;-68
2023/09/18 16:19:23;;;;;;;5.82;3.50;;;;;;;;;;6257695;28;20045;-67
2023/09/18 16:22:26;;;;;;;7.75;3.92;;;;;;;;;;6258954;28;20088;-67
2023/09/18 16:25:28;;;;;;;8.80;3.60;;;;;;;;;;6262227;28;20052;-68
2023/09/18 16:28:31;;;;;;;6.55;4.28;;;;;;;;;;6262633;28;20765;-67
2023/09/18 16:31:33;;;;;;;6.95;4.05;;;;;;;;;;6261623;28;20045;-67
2023/09/18 16:34:36;;;;;;;6.47;3.67;;;;;;;;;;6262759;28;20043;-68
2023/09/18 16:37:39;;;;;;;7.00;3.55;;;;;;;;;;6264040;28;20633;-68
2023/09/18 16:40:41;;;;;;;6.82;3.97;;;;;;;;;;6263396;28;20535;-67
2023/09/18 16:43:43;;;;;;;6.03;3.38;;;;;;;;;;6263712;28;20195;-68
2023/09/18 16:46:47;;;;;;;11.00;3.47;;;;;;;;;;6264208;28;20227;-67
2023/09/18 16:49:49;;;;;;;5.38;3.53;;;;;;;;;;6265622;28;20068;-68
2023/09/18 16:52:52;;;;;;;4.68;2.72;;;;;;;;;;6264022;28;20083;-67
2023/09/18 16:55:54;;;;;;;5.38;2.70;;;;;;;;;;6264983;28;20101;-67
2023/09/18 16:58:56;;;;;;;5.07;3.15;;;;;;;;;;6264605;28;20863;-67
2023/09/18 17:02:00;;;;;;;8.23;3.00;;;;;;;;;;6264693;28;20037;-67
2023/09/18 17:05:04;;;;;;;7.63;3.42;;;;;;;;;;6264982;28;20857;-67
2023/09/18 17:08:06;;;;;;;8.07;5.47;;;;;;;;;;6264932;28;20076;-68
2023/09/18 17:11:09;;;;;;;7.68;4.55;;;;;;;;;;6263338;28;20512;-67
2023/09/18 17:14:11;;;;;;;7.65;3.85;;;;;;;;;;6264050;28;20160;-68
2023/09/18 17:17:13;;;;;;;7.68;3.90;;;;;;;;;;6262454;28;20059;-67
2023/09/18 17:20:16;;;;;;;10.15;6.05;;;;;;;;;;6262549;28;20120;-67
2023/09/18 17:23:18;;;;;;;6.22;4.63;;;;;;;;;;6263685;28;20471;-68
2023/09/18 17:26:22;;;;;;;9.35;5.07;;;;;;;;;;6263898;28;20044;-67
2023/09/18 17:29:24;;;;;;;6.57;4.47;;;;;;;;;;6260874;28;20777;-67
2023/09/18 17:32:26;;;;;;;7.78;5.05;;;;;;;;;;6260608;28;20166;-68
2023/09/18 17:35:28;;;;;;;8.60;4.63;;;;;;;;;;6259062;28;20056;-68
2023/09/18 17:38:30;;;;;;;7.40;4.80;;;;;;;;;;6254464;28;20516;-68
2023/09/18 17:41:33;;;;;;;11.27;5.43;;;;;;;;;;6256632;28;20596;-67
2023/09/18 17:44:35;;;;;;;9.27;6.70;;;;;;;;;;6252515;28;20052;-69
2023/09/18 17:47:39;;;;;;;8.70;5.82;;;;;;;;;;6255642;28;20211;-70
2023/09/18 17:50:42;;;;;;;7.97;6.25;;;;;;;;;;6260180;28;20132;-69
2023/09/18 17:53:44;;;;;;;9.63;6.90;;;;;;;;;;6254429;28;20053;-70
2023/09/18 17:56:47;;;;;;;8.27;5.93;;;;;;;;;;6253834;28;20049;-69
2023/09/18 17:59:52;;;;;;;6.90;5.30;;;;;;;;;;6261271;28;20502;-70
2023/09/18 18:02:54;;;;;;;7.45;5.43;;;;;;;;;;6257899;28;20874;-69
2023/09/18 18:05:57;;;;;;;7.30;5.05;;;;;;;;;;6257256;28;20044;-70
2023/09/18 18:08:59;;;;;;;7.85;5.28;;;;;;;;;;6257581;28;20783;-68
2023/09/18 18:12:04;;;;;;;8.20;5.95;;;;;;;;;;6261210;28;20044;-69
2023/09/18 18:15:12;;;;;;;8.02;5.63;;;;;;;;;;6260182;28;20080;-69
2023/09/18 18:18:15;;;;;;;10.02;5.97;;;;;;;;;;6261501;28;20451;-67
2023/09/18 18:21:18;;;;;;;6.97;5.35;;;;;;;;;;6261743;28;20124;-68